Westover ARB,Metropolitan Airport Springfield,Chicopee US
ICAO: KCEF
IATA: CEF
Category: Medium
Scheduled Services: No

Elevation: 241 ft
TransAlt. 18000 ft.

Airport Communications:
BRADLEY APP/DEP:125.35
ATIS:114
GND:118.35
PMSV METRO:27.475
COMD POST 439 AW:25.21
PTD:37.22
TWR:134.85
UNICOM:123

KCEF Zoom In..

If you have problems with the map follow the link
https://www.worldairports.se/pages/airport.php?
ICAO=KCEF

Runways:

(A) RW 05 length 11597 ft width 301 ft
ILS 109.90 / hdg 48

(B) RW 15 length 7082 ft width 150 ft
---- / hdg 149

(C) RW 23 length 11597 ft width 301 ft
ILS 109.90 / hdg 228

(D) RW 33 length 7082 ft width 150 ft
---- / hdg 329

Location; KCEF
Day. 21 / Time. 03.56 Zulu
* Altimeter: 30.33
* Temperature: -09° c. -15.8°f.
* Wind from: 330° Speed 05 kn.
Dewpoint: -20° c.
Visibility: 10 Statute Miles.
Clouds: Clear (automated report).

KCEF 210356Z 33005KT 10SM CLR M09/M20 A3033 RMK AO2A SLP281 T10901196


Wind From 330°
Speed 05 kn.

 
 
jpsmedia worldairports.se 2020   terms of use